sensor_id;sensor_type;location;lat;lon;timestamp;P1;durP1;ratioP1;P2;durP2;ratioP2
76098;SDS011;64828;49.956;8.636;2023-09-30T00:00:06;3.73;;;1.70;;
76098;SDS011;64828;49.956;8.636;2023-09-30T00:00:23;4.70;;;1.80;;
76098;SDS011;64828;49.956;8.636;2023-09-30T00:00:39;5.77;;;2.00;;
76098;SDS011;64828;49.956;8.636;2023-09-30T00:00:54;5.97;;;2.00;;
76098;SDS011;64828;49.956;8.636;2023-09-30T00:01:10;5.32;;;1.92;;
76098;SDS011;64828;49.956;8.636;2023-09-30T00:01:26;4.47;;;1.90;;
76098;SDS011;64828;49.956;8.636;2023-09-30T00:01:42;4.65;;;1.92;;
76098;SDS011;64828;49.956;8.636;2023-09-30T00:01:58;5.20;;;1.80;;
76098;SDS011;64828;49.956;8.636;2023-09-30T00:02:14;4.97;;;1.67;;
76098;SDS011;64828;49.956;8.636;2023-09-30T00:02:30;4.53;;;1.80;;
76098;SDS011;64828;49.956;8.636;2023-09-30T00:02:46;5.10;;;1.90;;
76098;SDS011;64828;49.956;8.636;2023-09-30T00:03:01;5.38;;;1.92;;
76098;SDS011;64828;49.956;8.636;2023-09-30T00:03:18;4.78;;;1.92;;
76098;SDS011;64828;49.956;8.636;2023-09-30T00:03:33;4.03;;;2.00;;
76098;SDS011;64828;49.956;8.636;2023-09-30T00:03:49;4.77;;;2.00;;
76098;SDS011;64828;49.956;8.636;2023-09-30T00:04:05;5.75;;;1.98;;
76098;SDS011;64828;49.956;8.636;2023-09-30T00:04:22;6.28;;;2.00;;
76098;SDS011;64828;49.956;8.636;2023-09-30T00:04:38;6.07;;;1.98;;
76098;SDS011;64828;49.956;8.636;2023-09-30T00:04:54;4.80;;;1.98;;
76098;SDS011;64828;49.956;8.636;2023-09-30T00:05:10;5.53;;;2.28;;
76098;SDS011;64828;49.956;8.636;2023-09-30T00:05:25;5.90;;;2.22;;
76098;SDS011;64828;49.956;8.636;2023-09-30T00:05:41;5.77;;;2.10;;
76098;SDS011;64828;49.956;8.636;2023-09-30T00:05:56;5.45;;;2.35;;
76098;SDS011;64828;49.956;8.636;2023-09-30T00:06:13;4.70;;;2.10;;
76098;SDS011;64828;49.956;8.636;2023-09-30T00:06:28;5.20;;;2.00;;
76098;SDS011;64828;49.956;8.636;2023-09-30T00:06:44;5.33;;;2.00;;
76098;SDS011;64828;49.956;8.636;2023-09-30T00:07:00;6.30;;;1.95;;
76098;SDS011;64828;49.956;8.636;2023-09-30T00:07:15;6.20;;;2.00;;
76098;SDS011;64828;49.956;8.636;2023-09-30T00:07:31;4.35;;;1.95;;
76098;SDS011;64828;49.956;8.636;2023-09-30T00:07:46;4.63;;;2.00;;
76098;SDS011;64828;49.956;8.636;2023-09-30T00:08:02;6.43;;;2.08;;
76098;SDS011;64828;49.956;8.636;2023-09-30T00:08:19;7.97;;;2.15;;
76098;SDS011;64828;49.956;8.636;2023-09-30T00:08:35;7.82;;;2.10;;
76098;SDS011;64828;49.956;8.636;2023-09-30T00:08:51;6.32;;;2.28;;
76098;SDS011;64828;49.956;8.636;2023-09-30T00:09:07;6.00;;;2.20;;
76098;SDS011;64828;49.956;8.636;2023-09-30T00:09:22;5.57;;;2.00;;
76098;SDS011;64828;49.956;8.636;2023-09-30T00:09:38;4.93;;;2.00;;
76098;SDS011;64828;49.956;8.636;2023-09-30T00:09:54;5.13;;;2.00;;
76098;SDS011;64828;49.956;8.636;2023-09-30T00:10:10;5.90;;;2.00;;
76098;SDS011;64828;49.956;8.636;2023-09-30T00:10:26;5.55;;;2.00;;
76098;SDS011;64828;49.956;8.636;2023-09-30T00:10:41;7.00;;;2.10;;
76098;SDS011;64828;49.956;8.636;2023-09-30T00:10:57;7.00;;;2.13;;
76098;SDS011;64828;49.956;8.636;2023-09-30T00:11:15;4.73;;;2.10;;
76098;SDS011;64828;49.956;8.636;2023-09-30T00:11:32;5.00;;;2.15;;
76098;SDS011;64828;49.956;8.636;2023-09-30T00:11:47;5.43;;;2.03;;
76098;SDS011;64828;49.956;8.636;2023-09-30T00:12:03;4.97;;;1.92;;
76098;SDS011;64828;49.956;8.636;2023-09-30T00:12:19;5.78;;;1.80;;
76098;SDS011;64828;49.956;8.636;2023-09-30T00:12:35;6.07;;;1.80;;
76098;SDS011;64828;49.956;8.636;2023-09-30T00:12:51;5.82;;;1.90;;
76098;SDS011;64828;49.956;8.636;2023-09-30T00:13:06;5.90;;;1.97;;
76098;SDS011;64828;49.956;8.636;2023-09-30T00:13:22;5.97;;;1.85;;
76098;SDS011;64828;49.956;8.636;2023-09-30T00:13:39;5.43;;;1.90;;
76098;SDS011;64828;49.956;8.636;2023-09-30T00:13:54;4.40;;;1.92;;
76098;SDS011;64828;49.956;8.636;2023-09-30T00:14:10;5.27;;;2.00;;
76098;SDS011;64828;49.956;8.636;2023-09-30T00:14:25;7.38;;;2.15;;
76098;SDS011;64828;49.956;8.636;2023-09-30T00:14:41;7.93;;;2.10;;
76098;SDS011;64828;49.956;8.636;2023-09-30T00:14:56;7.33;;;2.10;;
76098;SDS011;64828;49.956;8.636;2023-09-30T00:15:13;6.72;;;2.10;;
76098;SDS011;64828;49.956;8.636;2023-09-30T00:15:28;5.43;;;2.00;;
76098;SDS011;64828;49.956;8.636;2023-09-30T00:15:44;4.35;;;1.90;;
76098;SDS011;64828;49.956;8.636;2023-09-30T00:16:00;5.57;;;1.97;;
76098;SDS011;64828;49.956;8.636;2023-09-30T00:16:15;5.57;;;1.90;;
76098;SDS011;64828;49.956;8.636;2023-09-30T00:16:32;4.78;;;2.10;;
76098;SDS011;64828;49.956;8.636;2023-09-30T00:16:49;4.28;;;2.17;;
76098;SDS011;64828;49.956;8.636;2023-09-30T00:17:05;4.90;;;2.30;;
76098;SDS011;64828;49.956;8.636;2023-09-30T00:17:21;7.00;;;2.40;;
76098;SDS011;64828;49.956;8.636;2023-09-30T00:17:37;7.32;;;2.22;;
76098;SDS011;64828;49.956;8.636;2023-09-30T00:17:52;7.25;;;2.00;;
76098;SDS011;64828;49.956;8.636;2023-09-30T00:18:08;7.05;;;2.10;;
76098;SDS011;64828;49.956;8.636;2023-09-30T00:18:24;4.63;;;2.20;;
76098;SDS011;64828;49.956;8.636;2023-09-30T00:18:40;4.57;;;2.33;;
76098;SDS011;64828;49.956;8.636;2023-09-30T00:18:56;5.30;;;2.47;;
76098;SDS011;64828;49.956;8.636;2023-09-30T00:19:13;5.20;;;2.30;;
76098;SDS011;64828;49.956;8.636;2023-09-30T00:19:29;4.68;;;2.00;;
76098;SDS011;64828;49.956;8.636;2023-09-30T00:19:47;4.93;;;1.80;;
76098;SDS011;64828;49.956;8.636;2023-09-30T00:20:03;4.88;;;2.13;;
76098;SDS011;64828;49.956;8.636;2023-09-30T00:20:20;4.93;;;2.30;;
76098;SDS011;64828;49.956;8.636;2023-09-30T00:20:37;5.47;;;2.10;;
76098;SDS011;64828;49.956;8.636;2023-09-30T00:20:53;4.80;;;2.20;;
76098;SDS011;64828;49.956;8.636;2023-09-30T00:21:09;5.03;;;1.98;;
76098;SDS011;64828;49.956;8.636;2023-09-30T00:21:24;6.80;;;1.80;;
76098;SDS011;64828;49.956;8.636;2023-09-30T00:21:40;6.72;;;2.05;;
76098;SDS011;64828;49.956;8.636;2023-09-30T00:21:55;5.72;;;2.45;;
76098;SDS011;64828;49.956;8.636;2023-09-30T00:22:11;6.90;;;2.23;;
76098;SDS011;64828;49.956;8.636;2023-09-30T00:22:27;7.20;;;2.20;;
76098;SDS011;64828;49.956;8.636;2023-09-30T00:22:43;5.10;;;2.20;;
76098;SDS011;64828;49.956;8.636;2023-09-30T00:22:59;5.63;;;2.15;;
76098;SDS011;64828;49.956;8.636;2023-09-30T00:23:14;6.00;;;2.03;;
76098;SDS011;64828;49.956;8.636;2023-09-30T00:23:30;5.10;;;2.17;;
76098;SDS011;64828;49.956;8.636;2023-09-30T00:23:46;5.78;;;2.30;;
76098;SDS011;64828;49.956;8.636;2023-09-30T00:24:01;6.30;;;2.20;;
76098;SDS011;64828;49.956;8.636;2023-09-30T00:24:17;5.97;;;2.10;;
76098;SDS011;64828;49.956;8.636;2023-09-30T00:24:33;5.93;;;2.20;;
76098;SDS011;64828;49.956;8.636;2023-09-30T00:24:49;6.78;;;2.40;;
76098;SDS011;64828;49.956;8.636;2023-09-30T00:25:04;6.30;;;2.30;;
76098;SDS011;64828;49.956;8.636;2023-09-30T00:25:21;5.68;;;2.30;;
76098;SDS011;64828;49.956;8.636;2023-09-30T00:25:37;5.43;;;2.30;;
76098;SDS011;64828;49.956;8.636;2023-09-30T00:25:54;5.88;;;2.20;;
76098;SDS011;64828;49.956;8.636;2023-09-30T00:26:10;5.70;;;2.25;;
76098;SDS011;64828;49.956;8.636;2023-09-30T00:26:26;6.45;;;2.10;;
76098;SDS011;64828;49.956;8.636;2023-09-30T00:26:41;6.20;;;2.10;;
76098;SDS011;64828;49.956;8.636;2023-09-30T00:26:57;6.75;;;2.20;;
76098;SDS011;64828;49.956;8.636;2023-09-30T00:27:13;7.60;;;2.03;;
76098;SDS011;64828;49.956;8.636;2023-09-30T00:27:28;6.60;;;2.05;;
76098;SDS011;64828;49.956;8.636;2023-09-30T00:27:44;6.60;;;2.10;;
76098;SDS011;64828;49.956;8.636;2023-09-30T00:27:59;5.77;;;2.07;;
76098;SDS011;64828;49.956;8.636;2023-09-30T00:28:15;5.40;;;2.05;;
76098;SDS011;64828;49.956;8.636;2023-09-30T00:28:31;5.20;;;2.00;;
76098;SDS011;64828;49.956;8.636;2023-09-30T00:28:46;5.53;;;2.13;;
76098;SDS011;64828;49.956;8.636;2023-09-30T00:29:02;6.22;;;2.38;;
76098;SDS011;64828;49.956;8.636;2023-09-30T00:29:20;6.55;;;2.40;;
76098;SDS011;64828;49.956;8.636;2023-09-30T00:29:36;5.25;;;2.08;;
76098;SDS011;64828;49.956;8.636;2023-09-30T00:29:51;4.67;;;2.00;;
76098;SDS011;64828;49.956;8.636;2023-09-30T00:30:07;6.60;;;2.08;;
76098;SDS011;64828;49.956;8.636;2023-09-30T00:30:23;6.80;;;2.03;;
76098;SDS011;64828;49.956;8.636;2023-09-30T00:30:39;4.70;;;2.00;;
76098;SDS011;64828;49.956;8.636;2023-09-30T00:30:54;6.30;;;2.10;;
76098;SDS011;64828;49.956;8.636;2023-09-30T00:31:10;6.80;;;2.20;;
76098;SDS011;64828;49.956;8.636;2023-09-30T00:31:25;4.95;;;2.20;;
76098;SDS011;64828;49.956;8.636;2023-09-30T00:31:41;5.07;;;2.10;;
76098;SDS011;64828;49.956;8.636;2023-09-30T00:31:56;5.47;;;2.05;;
76098;SDS011;64828;49.956;8.636;2023-09-30T00:32:12;7.18;;;2.30;;
76098;SDS011;64828;49.956;8.636;2023-09-30T00:32:28;8.67;;;2.40;;
76098;SDS011;64828;49.956;8.636;2023-09-30T00:32:44;7.25;;;2.33;;
76098;SDS011;64828;49.956;8.636;2023-09-30T00:33:00;5.82;;;2.20;;
76098;SDS011;64828;49.956;8.636;2023-09-30T00:33:15;6.43;;;2.30;;
76098;SDS011;64828;49.956;8.636;2023-09-30T00:33:31;6.33;;;2.30;;
76098;SDS011;64828;49.956;8.636;2023-09-30T00:33:47;4.82;;;2.10;;
76098;SDS011;64828;49.956;8.636;2023-09-30T00:34:03;4.10;;;2.08;;
76098;SDS011;64828;49.956;8.636;2023-09-30T00:34:18;4.20;;;2.00;;
76098;SDS011;64828;49.956;8.636;2023-09-30T00:34:34;6.30;;;2.20;;
76098;SDS011;64828;49.956;8.636;2023-09-30T00:34:50;7.15;;;2.40;;
76098;SDS011;64828;49.956;8.636;2023-09-30T00:35:07;5.97;;;2.15;;
76098;SDS011;64828;49.956;8.636;2023-09-30T00:35:25;5.72;;;1.92;;
76098;SDS011;64828;49.956;8.636;2023-09-30T00:35:41;5.30;;;2.00;;
76098;SDS011;64828;49.956;8.636;2023-09-30T00:35:57;5.43;;;2.13;;
76098;SDS011;64828;49.956;8.636;2023-09-30T00:36:12;5.60;;;2.10;;
76098;SDS011;64828;49.956;8.636;2023-09-30T00:36:28;5.50;;;2.00;;
76098;SDS011;64828;49.956;8.636;2023-09-30T00:36:44;6.22;;;2.05;;
76098;SDS011;64828;49.956;8.636;2023-09-30T00:36:59;6.57;;;2.30;;
76098;SDS011;64828;49.956;8.636;2023-09-30T00:37:15;6.80;;;2.40;;
76098;SDS011;64828;49.956;8.636;2023-09-30T00:37:31;6.05;;;2.10;;
76098;SDS011;64828;49.956;8.636;2023-09-30T00:37:46;5.03;;;1.97;;
76098;SDS011;64828;49.956;8.636;2023-09-30T00:38:02;4.40;;;2.22;;
76098;SDS011;64828;49.956;8.636;2023-09-30T00:38:18;4.57;;;2.23;;
76098;SDS011;64828;49.956;8.636;2023-09-30T00:38:34;5.47;;;2.10;;
76098;SDS011;64828;49.956;8.636;2023-09-30T00:38:53;5.53;;;2.10;;
76098;SDS011;64828;49.956;8.636;2023-09-30T00:39:09;6.20;;;2.20;;
76098;SDS011;64828;49.956;8.636;2023-09-30T00:39:24;6.50;;;2.30;;
76098;SDS011;64828;49.956;8.636;2023-09-30T00:39:44;6.00;;;2.55;;
76098;SDS011;64828;49.956;8.636;2023-09-30T00:40:00;5.28;;;2.30;;
76098;SDS011;64828;49.956;8.636;2023-09-30T00:40:15;4.60;;;2.00;;
76098;SDS011;64828;49.956;8.636;2023-09-30T00:40:31;4.88;;;2.08;;
76098;SDS011;64828;49.956;8.636;2023-09-30T00:40:50;7.47;;;2.22;;
76098;SDS011;64828;49.956;8.636;2023-09-30T00:41:06;8.23;;;2.65;;
76098;SDS011;64828;49.956;8.636;2023-09-30T00:41:24;6.78;;;2.45;;
76098;SDS011;64828;49.956;8.636;2023-09-30T00:41:40;7.37;;;2.30;;
76098;SDS011;64828;49.956;8.636;2023-09-30T00:41:56;6.82;;;2.40;;
76098;SDS011;64828;49.956;8.636;2023-09-30T00:42:13;5.35;;;2.40;;
76098;SDS011;64828;49.956;8.636;2023-09-30T00:42:29;5.47;;;2.37;;
76098;SDS011;64828;49.956;8.636;2023-09-30T00:42:44;5.82;;;2.50;;
76098;SDS011;64828;49.956;8.636;2023-09-30T00:43:01;5.82;;;2.33;;
76098;SDS011;64828;49.956;8.636;2023-09-30T00:43:18;7.20;;;2.40;;
76098;SDS011;64828;49.956;8.636;2023-09-30T00:43:36;6.38;;;2.50;;
76098;SDS011;64828;49.956;8.636;2023-09-30T00:43:52;7.13;;;2.40;;
76098;SDS011;64828;49.956;8.636;2023-09-30T00:44:07;7.25;;;2.40;;
76098;SDS011;64828;49.956;8.636;2023-09-30T00:44:23;6.57;;;2.50;;
76098;SDS011;64828;49.956;8.636;2023-09-30T00:44:42;6.15;;;2.60;;
76098;SDS011;64828;49.956;8.636;2023-09-30T00:44:57;5.63;;;2.55;;
76098;SDS011;64828;49.956;8.636;2023-09-30T00:45:13;5.32;;;2.50;;
76098;SDS011;64828;49.956;8.636;2023-09-30T00:45:29;6.50;;;2.60;;
76098;SDS011;64828;49.956;8.636;2023-09-30T00:45:46;5.63;;;2.40;;
76098;SDS011;64828;49.956;8.636;2023-09-30T00:46:27;4.82;;;2.30;;
76098;SDS011;64828;49.956;8.636;2023-09-30T00:46:44;6.80;;;2.60;;
76098;SDS011;64828;49.956;8.636;2023-09-30T00:47:00;6.80;;;2.30;;
76098;SDS011;64828;49.956;8.636;2023-09-30T00:47:16;5.22;;;2.30;;
76098;SDS011;64828;49.956;8.636;2023-09-30T00:47:33;5.85;;;2.60;;
76098;SDS011;64828;49.956;8.636;2023-09-30T00:47:50;5.38;;;2.50;;
76098;SDS011;64828;49.956;8.636;2023-09-30T00:48:06;5.13;;;2.47;;
76098;SDS011;64828;49.956;8.636;2023-09-30T00:48:22;4.87;;;2.50;;
76098;SDS011;64828;49.956;8.636;2023-09-30T00:48:37;5.18;;;2.35;;
76098;SDS011;64828;49.956;8.636;2023-09-30T00:48:54;6.43;;;2.50;;
76098;SDS011;64828;49.956;8.636;2023-09-30T00:49:13;5.60;;;2.60;;
76098;SDS011;64828;49.956;8.636;2023-09-30T00:49:29;6.30;;;2.60;;
76098;SDS011;64828;49.956;8.636;2023-09-30T00:49:46;5.82;;;2.60;;
76098;SDS011;64828;49.956;8.636;2023-09-30T00:50:02;6.47;;;2.80;;
76098;SDS011;64828;49.956;8.636;2023-09-30T00:50:22;6.15;;;2.65;;
76098;SDS011;64828;49.956;8.636;2023-09-30T00:50:38;5.82;;;2.65;;
76098;SDS011;64828;49.956;8.636;2023-09-30T00:50:55;5.32;;;2.58;;
76098;SDS011;64828;49.956;8.636;2023-09-30T00:51:12;6.05;;;2.42;;
76098;SDS011;64828;49.956;8.636;2023-09-30T00:51:28;8.67;;;2.80;;
76098;SDS011;64828;49.956;8.636;2023-09-30T00:51:44;6.95;;;2.67;;
76098;SDS011;64828;49.956;8.636;2023-09-30T00:52:02;5.93;;;2.72;;
76098;SDS011;64828;49.956;8.636;2023-09-30T00:52:18;6.72;;;2.75;;
76098;SDS011;64828;49.956;8.636;2023-09-30T00:52:35;5.70;;;2.50;;
76098;SDS011;64828;49.956;8.636;2023-09-30T00:52:53;6.85;;;2.70;;
76098;SDS011;64828;49.956;8.636;2023-09-30T00:53:09;7.63;;;2.80;;
76098;SDS011;64828;49.956;8.636;2023-09-30T00:53:25;6.53;;;2.67;;
76098;SDS011;64828;49.956;8.636;2023-09-30T00:53:41;6.13;;;2.70;;
76098;SDS011;64828;49.956;8.636;2023-09-30T00:53:58;8.13;;;2.85;;
76098;SDS011;64828;49.956;8.636;2023-09-30T00:54:15;7.90;;;2.65;;
76098;SDS011;64828;49.956;8.636;2023-09-30T00:54:32;6.43;;;2.60;;
76098;SDS011;64828;49.956;8.636;2023-09-30T00:54:50;7.68;;;2.67;;
76098;SDS011;64828;49.956;8.636;2023-09-30T00:55:07;7.88;;;2.78;;
76098;SDS011;64828;49.956;8.636;2023-09-30T00:55:23;7.05;;;2.75;;
76098;SDS011;64828;49.956;8.636;2023-09-30T00:55:39;6.82;;;2.90;;
76098;SDS011;64828;49.956;8.636;2023-09-30T00:55:55;6.97;;;3.03;;
76098;SDS011;64828;49.956;8.636;2023-09-30T00:56:12;6.55;;;2.70;;
76098;SDS011;64828;49.956;8.636;2023-09-30T00:56:29;5.75;;;2.55;;
76098;SDS011;64828;49.956;8.636;2023-09-30T00:56:46;6.70;;;2.75;;
76098;SDS011;64828;49.956;8.636;2023-09-30T00:57:03;7.30;;;3.00;;
76098;SDS011;64828;49.956;8.636;2023-09-30T00:57:20;7.18;;;2.88;;
76098;SDS011;64828;49.956;8.636;2023-09-30T00:57:36;7.53;;;2.83;;
76098;SDS011;64828;49.956;8.636;2023-09-30T00:57:54;8.15;;;2.97;;
76098;SDS011;64828;49.956;8.636;2023-09-30T00:58:09;5.65;;;2.88;;
76098;SDS011;64828;49.956;8.636;2023-09-30T00:58:25;6.47;;;2.97;;
76098;SDS011;64828;49.956;8.636;2023-09-30T00:58:44;6.97;;;2.95;;
76098;SDS011;64828;49.956;8.636;2023-09-30T00:59:02;7.80;;;3.15;;
76098;SDS011;64828;49.956;8.636;2023-09-30T00:59:18;7.78;;;3.13;;
76098;SDS011;64828;49.956;8.636;2023-09-30T00:59:35;7.05;;;2.70;;
76098;SDS011;64828;49.956;8.636;2023-09-30T00:59:51;7.10;;;2.63;;
76098;SDS011;64828;49.956;8.636;2023-09-30T01:00:07;6.72;;;2.55;;
76098;SDS011;64828;49.956;8.636;2023-09-30T01:00:26;7.30;;;2.80;;
76098;SDS011;64828;49.956;8.636;2023-09-30T01:00:43;7.55;;;2.80;;
76098;SDS011;64828;49.956;8.636;2023-09-30T01:00:58;7.22;;;2.88;;
76098;SDS011;64828;49.956;8.636;2023-09-30T01:01:15;6.18;;;2.90;;
76098;SDS011;64828;49.956;8.636;2023-09-30T01:01:30;5.78;;;2.60;;
76098;SDS011;64828;49.956;8.636;2023-09-30T01:01:47;6.20;;;2.85;;
76098;SDS011;64828;49.956;8.636;2023-09-30T01:02:03;6.38;;;3.08;;
76098;SDS011;64828;49.956;8.636;2023-09-30T01:02:21;8.15;;;3.20;;
76098;SDS011;64828;49.956;8.636;2023-09-30T01:02:38;8.57;;;3.10;;
76098;SDS011;64828;49.956;8.636;2023-09-30T01:02:56;8.15;;;3.10;;
76098;SDS011;64828;49.956;8.636;2023-09-30T01:03:14;9.18;;;3.28;;
76098;SDS011;64828;49.956;8.636;2023-09-30T01:03:30;8.50;;;3.33;;
76098;SDS011;64828;49.956;8.636;2023-09-30T01:03:46;6.53;;;3.05;;
76098;SDS011;64828;49.956;8.636;2023-09-30T01:04:02;6.95;;;3.28;;
76098;SDS011;64828;49.956;8.636;2023-09-30T01:04:18;6.57;;;3.30;;
76098;SDS011;64828;49.956;8.636;2023-09-30T01:04:35;6.60;;;3.10;;
76098;SDS011;64828;49.956;8.636;2023-09-30T01:04:53;6.55;;;3.40;;
76098;SDS011;64828;49.956;8.636;2023-09-30T01:05:10;6.32;;;3.10;;
76098;SDS011;64828;49.956;8.636;2023-09-30T01:05:26;6.28;;;3.00;;
76098;SDS011;64828;49.956;8.636;2023-09-30T01:05:42;6.80;;;3.20;;
76098;SDS011;64828;49.956;8.636;2023-09-30T01:05:57;7.07;;;3.20;;
76098;SDS011;64828;49.956;8.636;2023-09-30T01:06:13;6.53;;;2.95;;
76098;SDS011;64828;49.956;8.636;2023-09-30T01:06:29;7.65;;;3.03;;
76098;SDS011;64828;49.956;8.636;2023-09-30T01:06:45;6.68;;;3.13;;
76098;SDS011;64828;49.956;8.636;2023-09-30T01:07:02;6.35;;;3.00;;
76098;SDS011;64828;49.956;8.636;2023-09-30T01:07:19;7.10;;;3.40;;
76098;SDS011;64828;49.956;8.636;2023-09-30T01:07:36;6.55;;;3.47;;
76098;SDS011;64828;49.956;8.636;2023-09-30T01:07:52;7.75;;;3.47;;
76098;SDS011;64828;49.956;8.636;2023-09-30T01:08:08;7.93;;;3.60;;
76098;SDS011;64828;49.956;8.636;2023-09-30T01:08:24;8.25;;;3.67;;
76098;SDS011;64828;49.956;8.636;2023-09-30T01:08:40;7.90;;;3.75;;
76098;SDS011;64828;49.956;8.636;2023-09-30T01:08:56;7.45;;;3.65;;
76098;SDS011;64828;49.956;8.636;2023-09-30T01:09:12;6.35;;;3.40;;
76098;SDS011;64828;49.956;8.636;2023-09-30T01:09:28;6.85;;;3.53;;
76098;SDS011;64828;49.956;8.636;2023-09-30T01:09:43;7.33;;;3.43;;
76098;SDS011;64828;49.956;8.636;2023-09-30T01:09:59;7.15;;;3.45;;
76098;SDS011;64828;49.956;8.636;2023-09-30T01:10:15;7.83;;;3.50;;
76098;SDS011;64828;49.956;8.636;2023-09-30T01:10:30;7.57;;;3.65;;
76098;SDS011;64828;49.956;8.636;2023-09-30T01:10:46;7.45;;;3.92;;
76098;SDS011;64828;49.956;8.636;2023-09-30T01:11:03;6.32;;;3.72;;
76098;SDS011;64828;49.956;8.636;2023-09-30T01:11:18;6.82;;;3.58;;
76098;SDS011;64828;49.956;8.636;2023-09-30T01:11:35;7.30;;;3.60;;
76098;SDS011;64828;49.956;8.636;2023-09-30T01:11:51;6.90;;;3.60;;
76098;SDS011;64828;49.956;8.636;2023-09-30T01:12:07;8.70;;;3.67;;
76098;SDS011;64828;49.956;8.636;2023-09-30T01:12:23;9.50;;;4.00;;
76098;SDS011;64828;49.956;8.636;2023-09-30T01:12:39;8.17;;;3.97;;
76098;SDS011;64828;49.956;8.636;2023-09-30T01:12:54;7.15;;;3.80;;
76098;SDS011;64828;49.956;8.636;2023-09-30T01:13:10;6.30;;;3.70;;
76098;SDS011;64828;49.956;8.636;2023-09-30T01:13:32;6.45;;;3.53;;
76098;SDS011;64828;49.956;8.636;2023-09-30T01:13:52;8.57;;;4.00;;
76098;SDS011;64828;49.956;8.636;2023-09-30T01:14:43;9.32;;;3.60;;
76098;SDS011;64828;49.956;8.636;2023-09-30T01:14:59;9.07;;;3.70;;
76098;SDS011;64828;49.956;8.636;2023-09-30T01:15:15;9.80;;;3.80;;
76098;SDS011;64828;49.956;8.636;2023-09-30T01:15:30;10.35;;;4.00;;
76098;SDS011;64828;49.956;8.636;2023-09-30T01:15:46;11.40;;;4.07;;
76098;SDS011;64828;49.956;8.636;2023-09-30T01:16:03;10.07;;;3.85;;
76098;SDS011;64828;49.956;8.636;2023-09-30T01:16:26;8.82;;;4.20;;
76098;SDS011;64828;49.956;8.636;2023-09-30T01:16:41;8.68;;;3.80;;
76098;SDS011;64828;49.956;8.636;2023-09-30T01:16:57;7.40;;;3.50;;
76098;SDS011;64828;49.956;8.636;2023-09-30T01:17:13;7.32;;;3.60;;
76098;SDS011;64828;49.956;8.636;2023-09-30T01:17:29;9.43;;;4.05;;
76098;SDS011;64828;49.956;8.636;2023-09-30T01:17:44;9.37;;;4.03;;
76098;SDS011;64828;49.956;8.636;2023-09-30T01:18:00;7.93;;;3.65;;
76098;SDS011;64828;49.956;8.636;2023-09-30T01:18:16;7.82;;;3.70;;
76098;SDS011;64828;49.956;8.636;2023-09-30T01:18:32;8.10;;;3.70;;
76098;SDS011;64828;49.956;8.636;2023-09-30T01:18:48;7.78;;;3.80;;
76098;SDS011;64828;49.956;8.636;2023-09-30T01:19:03;6.43;;;3.70;;
76098;SDS011;64828;49.956;8.636;2023-09-30T01:19:19;6.87;;;3.80;;
76098;SDS011;64828;49.956;8.636;2023-09-30T01:19:35;7.22;;;3.67;;
76098;SDS011;64828;49.956;8.636;2023-09-30T01:19:51;6.95;;;3.47;;
76098;SDS011;64828;49.956;8.636;2023-09-30T01:20:07;7.38;;;3.25;;
76098;SDS011;64828;49.956;8.636;2023-09-30T01:20:26;8.88;;;3.40;;
76098;SDS011;64828;49.956;8.636;2023-09-30T01:20:42;7.70;;;3.50;;
76098;SDS011;64828;49.956;8.636;2023-09-30T01:21:01;7.27;;;3.60;;
76098;SDS011;64828;49.956;8.636;2023-09-30T01:21:19;8.68;;;3.67;;
76098;SDS011;64828;49.956;8.636;2023-09-30T01:21:35;9.45;;;3.67;;
76098;SDS011;64828;49.956;8.636;2023-09-30T01:21:52;9.20;;;3.57;;
76098;SDS011;64828;49.956;8.636;2023-09-30T01:22:11;6.65;;;3.45;;
76098;SDS011;64828;49.956;8.636;2023-09-30T01:22:27;6.97;;;3.63;;
76098;SDS011;64828;49.956;8.636;2023-09-30T01:22:45;7.78;;;3.50;;
76098;SDS011;64828;49.956;8.636;2023-09-30T01:23:00;7.93;;;3.42;;
76098;SDS011;64828;49.956;8.636;2023-09-30T01:23:18;8.25;;;3.95;;
76098;SDS011;64828;49.956;8.636;2023-09-30T01:23:34;9.13;;;4.05;;
76098;SDS011;64828;49.956;8.636;2023-09-30T01:23:50;9.30;;;3.67;;
76098;SDS011;64828;49.956;8.636;2023-09-30T01:24:06;7.82;;;3.40;;
76098;SDS011;64828;49.956;8.636;2023-09-30T01:24:22;7.75;;;3.83;;
76098;SDS011;64828;49.956;8.636;2023-09-30T01:24:39;8.77;;;4.00;;
76098;SDS011;64828;49.956;8.636;2023-09-30T01:24:56;7.75;;;3.60;;
76098;SDS011;64828;49.956;8.636;2023-09-30T01:25:12;7.30;;;3.57;;
76098;SDS011;64828;49.956;8.636;2023-09-30T01:25:27;7.60;;;3.72;;
76098;SDS011;64828;49.956;8.636;2023-09-30T01:25:43;7.50;;;3.92;;
76098;SDS011;64828;49.956;8.636;2023-09-30T01:26:03;9.10;;;3.97;;
76098;SDS011;64828;49.956;8.636;2023-09-30T01:26:21;9.70;;;3.75;;
76098;SDS011;64828;49.956;8.636;2023-09-30T01:26:37;7.40;;;3.50;;
76098;SDS011;64828;49.956;8.636;2023-09-30T01:26:53;7.40;;;3.70;;
76098;SDS011;64828;49.956;8.636;2023-09-30T01:27:09;6.45;;;4.03;;
76098;SDS011;64828;49.956;8.636;2023-09-30T01:27:25;7.03;;;4.00;;
76098;SDS011;64828;49.956;8.636;2023-09-30T01:27:40;10.52;;;4.15;;
76098;SDS011;64828;49.956;8.636;2023-09-30T01:27:56;11.80;;;4.10;;
76098;SDS011;64828;49.956;8.636;2023-09-30T01:28:14;10.38;;;3.92;;
76098;SDS011;64828;49.956;8.636;2023-09-30T01:28:31;7.78;;;3.90;;
76098;SDS011;64828;49.956;8.636;2023-09-30T01:28:47;7.15;;;3.60;;
76098;SDS011;64828;49.956;8.636;2023-09-30T01:29:03;7.43;;;3.75;;
76098;SDS011;64828;49.956;8.636;2023-09-30T01:29:19;7.07;;;3.60;;
76098;SDS011;64828;49.956;8.636;2023-09-30T01:29:35;7.63;;;3.70;;
76098;SDS011;64828;49.956;8.636;2023-09-30T01:29:53;8.65;;;3.80;;
76098;SDS011;64828;49.956;8.636;2023-09-30T01:30:08;8.27;;;3.83;;
76098;SDS011;64828;49.956;8.636;2023-09-30T01:30:25;7.72;;;3.70;;
76098;SDS011;64828;49.956;8.636;2023-09-30T01:30:41;8.37;;;3.80;;
76098;SDS011;64828;49.956;8.636;2023-09-30T01:30:59;9.25;;;3.80;;
76098;SDS011;64828;49.956;8.636;2023-09-30T01:31:15;9.18;;;4.07;;
76098;SDS011;64828;49.956;8.636;2023-09-30T01:31:31;8.15;;;4.10;;
76098;SDS011;64828;49.956;8.636;2023-09-30T01:31:46;8.07;;;3.90;;
76098;SDS011;64828;49.956;8.636;2023-09-30T01:32:02;8.77;;;3.72;;
76098;SDS011;64828;49.956;8.636;2023-09-30T01:32:20;9.15;;;3.53;;
76098;SDS011;64828;49.956;8.636;2023-09-30T01:32:36;7.65;;;3.40;;
76098;SDS011;64828;49.956;8.636;2023-09-30T01:32:52;7.40;;;3.45;;
76098;SDS011;64828;49.956;8.636;2023-09-30T01:33:08;8.27;;;3.70;;
76098;SDS011;64828;49.956;8.636;2023-09-30T01:33:24;10.05;;;4.20;;
76098;SDS011;64828;49.956;8.636;2023-09-30T01:33:39;10.07;;;4.17;;
76098;SDS011;64828;49.956;8.636;2023-09-30T01:33:55;8.73;;;3.85;;
76098;SDS011;64828;49.956;8.636;2023-09-30T01:34:11;7.78;;;3.90;;
76098;SDS011;64828;49.956;8.636;2023-09-30T01:34:27;7.80;;;3.70;;
76098;SDS011;64828;49.956;8.636;2023-09-30T01:34:42;8.20;;;3.53;;
76098;SDS011;64828;49.956;8.636;2023-09-30T01:34:58;8.48;;;3.83;;
76098;SDS011;64828;49.956;8.636;2023-09-30T01:35:13;8.83;;;4.00;;
76098;SDS011;64828;49.956;8.636;2023-09-30T01:35:29;9.18;;;3.80;;
76098;SDS011;64828;49.956;8.636;2023-09-30T01:35:44;8.33;;;3.80;;
76098;SDS011;64828;49.956;8.636;2023-09-30T01:36:00;6.22;;;3.53;;
76098;SDS011;64828;49.956;8.636;2023-09-30T01:36:16;6.77;;;3.50;;
76098;SDS011;64828;49.956;8.636;2023-09-30T01:36:32;6.57;;;3.42;;
76098;SDS011;64828;49.956;8.636;2023-09-30T01:36:48;6.13;;;3.30;;
76098;SDS011;64828;49.956;8.636;2023-09-30T01:37:03;7.50;;;3.55;;
76098;SDS011;64828;49.956;8.636;2023-09-30T01:37:19;8.30;;;3.72;;
76098;SDS011;64828;49.956;8.636;2023-09-30T01:37:35;9.40;;;3.67;;
76098;SDS011;64828;49.956;8.636;2023-09-30T01:37:51;9.27;;;3.67;;
76098;SDS011;64828;49.956;8.636;2023-09-30T01:38:06;7.72;;;3.53;;
76098;SDS011;64828;49.956;8.636;2023-09-30T01:38:22;7.20;;;3.58;;
76098;SDS011;64828;49.956;8.636;2023-09-30T01:38:38;6.23;;;3.33;;
76098;SDS011;64828;49.956;8.636;2023-09-30T01:38:53;6.40;;;3.30;;